createdAt,value
2018-01-08T00:00:35.295Z,11.33
2018-01-08T00:03:03.558Z,9.90
2018-01-08T00:05:33.311Z,9.70
2018-01-08T00:08:03.067Z,8.87
2018-01-08T00:10:31.304Z,9.70
2018-01-08T00:12:59.542Z,9.03
2018-01-08T00:15:29.659Z,10.60
2018-01-08T00:17:57.756Z,10.60
2018-01-08T00:20:25.985Z,9.60
2018-01-08T00:22:55.380Z,10.60
2018-01-08T00:25:23.637Z,9.27
2018-01-08T00:27:51.864Z,10.90
2018-01-08T00:30:20.148Z,10.07
2018-01-08T00:32:48.377Z,11.17
2018-01-08T00:35:16.620Z,11.97
2018-01-08T00:37:46.058Z,8.97
2018-01-08T00:40:15.657Z,11.97
2018-01-08T00:42:44.557Z,10.00
2018-01-08T00:45:12.864Z,9.50
2018-01-08T00:47:41.096Z,9.17
2018-01-08T00:50:10.857Z,10.33
2018-01-08T00:52:39.140Z,10.10
2018-01-08T00:55:08.137Z,10.33
2018-01-08T00:57:37.505Z,9.57
2018-01-08T01:00:05.763Z,9.50
2018-01-08T01:02:34.002Z,11.77
2018-01-08T01:05:02.250Z,9.37
2018-01-08T01:07:30.533Z,11.10
2018-01-08T01:09:59.550Z,9.30
2018-01-08T01:12:27.776Z,9.93
2018-01-08T01:14:56.058Z,10.43
2018-01-08T01:17:24.285Z,9.60
2018-01-08T01:19:52.508Z,10.40
2018-01-08T01:22:21.904Z,13.70
2018-01-08T01:24:50.143Z,10.57
2018-01-08T01:27:19.132Z,9.80
2018-01-08T01:29:47.391Z,10.20
2018-01-08T01:32:15.636Z,12.67
2018-01-08T01:34:45.030Z,12.07
2018-01-08T01:37:13.329Z,11.93
2018-01-08T01:39:41.581Z,10.03
2018-01-08T01:42:09.800Z,9.47
2018-01-08T01:44:38.087Z,10.60
2018-01-08T01:47:07.081Z,9.43
2018-01-08T01:49:35.309Z,11.60
2018-01-08T01:52:04.929Z,10.30
2018-01-08T01:54:33.432Z,11.20
2018-01-08T01:57:01.682Z,10.83
2018-01-08T01:59:29.947Z,9.87
2018-01-08T02:01:58.941Z,9.47
2018-01-08T02:04:27.940Z,10.97
2018-01-08T02:06:56.192Z,9.93
2018-01-08T02:09:25.185Z,9.80
2018-01-08T02:11:53.416Z,10.40
2018-01-08T02:14:23.209Z,10.00
2018-01-08T02:19:26.481Z,12.97
2018-01-08T02:21:54.716Z,10.63
2018-01-08T02:24:24.090Z,10.20
2018-01-08T02:26:53.125Z,12.77
2018-01-08T02:29:21.366Z,10.90
2018-01-08T02:31:50.357Z,10.33
2018-01-08T02:34:19.967Z,13.50
2018-01-08T02:36:48.084Z,12.60
2018-01-08T02:39:16.329Z,10.43
2018-01-08T02:41:45.767Z,10.77
2018-01-08T02:44:14.008Z,13.30
2018-01-08T02:46:42.254Z,15.43
2018-01-08T02:49:11.002Z,11.73
2018-01-08T02:51:42.402Z,12.23
2018-01-08T02:54:10.666Z,11.80
2018-01-08T02:56:38.936Z,13.10
2018-01-08T02:59:07.164Z,11.97
2018-01-08T03:01:35.399Z,11.83
2018-01-08T03:04:03.669Z,11.60
2018-01-08T03:06:32.664Z,13.23
2018-01-08T03:09:00.904Z,15.03
2018-01-08T03:11:29.177Z,15.07
2018-01-08T03:13:57.409Z,14.00
2018-01-08T03:16:27.156Z,11.83
2018-01-08T03:18:55.437Z,12.00
2018-01-08T03:21:23.668Z,13.90
2018-01-08T03:23:51.900Z,14.60
2018-01-08T03:26:20.184Z,12.97
2018-01-08T03:28:49.551Z,13.43
2018-01-08T03:31:18.206Z,14.73
2018-01-08T03:33:46.494Z,14.47
2018-01-08T03:36:14.756Z,13.10
2018-01-08T03:38:43.039Z,13.73
2018-01-08T03:41:12.107Z,13.33
2018-01-08T03:43:40.913Z,13.33
2018-01-08T03:46:09.155Z,13.50
2018-01-08T03:48:37.857Z,10.83
2018-01-08T03:51:07.448Z,12.00
2018-01-08T03:53:35.957Z,16.83
2018-01-08T03:56:05.005Z,12.60
2018-01-08T03:58:33.244Z,11.67
2018-01-08T04:01:01.507Z,13.33
2018-01-08T04:03:29.793Z,12.77
2018-01-08T04:05:58.039Z,15.07
2018-01-08T04:08:26.265Z,13.57
2018-01-08T04:10:54.560Z,14.00
2018-01-08T04:13:22.797Z,14.10
2018-01-08T04:15:52.164Z,11.47
2018-01-08T04:18:20.437Z,12.53
2018-01-08T04:20:48.663Z,12.77
2018-01-08T04:23:16.900Z,12.73
2018-01-08T04:25:45.184Z,12.60
2018-01-08T04:28:14.789Z,13.10
2018-01-08T04:30:43.674Z,17.47
2018-01-08T04:33:14.035Z,12.37
2018-01-08T04:35:43.306Z,17.60
2018-01-08T04:38:13.064Z,13.20
2018-01-08T04:40:41.366Z,13.30
2018-01-08T04:43:09.594Z,13.27
2018-01-08T04:45:37.832Z,13.73
2018-01-08T04:48:07.265Z,11.43
2018-01-08T04:50:36.264Z,14.50
2018-01-08T04:53:04.500Z,14.87
2018-01-08T04:55:32.769Z,13.90
2018-01-08T04:58:02.161Z,13.43
2018-01-08T05:00:30.417Z,16.00
2018-01-08T05:03:00.066Z,13.50
2018-01-08T05:05:28.938Z,12.47
2018-01-08T05:07:57.164Z,14.50
2018-01-08T05:10:26.224Z,14.10
2018-01-08T05:12:54.457Z,14.80
2018-01-08T05:15:22.693Z,12.97
2018-01-08T05:17:52.321Z,15.30
2018-01-08T05:20:20.823Z,15.10
2018-01-08T05:22:49.061Z,15.00
2018-01-08T05:25:17.338Z,14.47
2018-01-08T05:27:46.709Z,14.63
2018-01-08T05:30:14.969Z,13.33
2018-01-08T05:32:44.011Z,15.27
2018-01-08T05:35:12.367Z,12.10
2018-01-08T05:37:40.624Z,12.40
2018-01-08T05:40:10.439Z,13.27
2018-01-08T05:42:38.685Z,13.90
2018-01-08T05:45:06.927Z,11.33
2018-01-08T05:47:35.974Z,14.70
2018-01-08T05:50:04.980Z,13.53
2018-01-08T05:52:33.212Z,16.20
2018-01-08T05:55:02.621Z,16.57
2018-01-08T05:57:31.619Z,13.60
2018-01-08T06:00:00.646Z,12.87
2018-01-08T06:02:30.270Z,16.33
2018-01-08T06:04:58.802Z,14.53
2018-01-08T06:07:27.432Z,13.10
2018-01-08T06:09:55.696Z,15.13
2018-01-08T06:12:25.435Z,14.53
2018-01-08T06:14:53.681Z,14.82
2018-01-08T06:17:21.968Z,13.13
2018-01-08T06:19:50.200Z,12.37
2018-01-08T06:22:18.429Z,14.23
2018-01-08T06:24:48.209Z,11.43
2018-01-08T06:27:16.460Z,12.80
2018-01-08T06:29:44.719Z,14.93
2018-01-08T06:32:13.013Z,14.77
2018-01-08T06:34:41.264Z,17.57
2018-01-08T06:37:10.656Z,19.40
2018-01-08T06:39:40.466Z,17.60
2018-01-08T06:42:08.700Z,14.77
2018-01-08T06:44:36.928Z,13.70
2018-01-08T06:47:06.697Z,14.27
2018-01-08T06:49:35.320Z,16.07
2018-01-08T06:52:03.554Z,15.33
2018-01-08T06:54:31.869Z,15.23
2018-01-08T06:57:00.114Z,14.33
2018-01-08T06:59:29.502Z,16.93
2018-01-08T07:01:57.761Z,14.77
2018-01-08T07:04:25.996Z,14.90
2018-01-08T07:06:54.228Z,12.67
2018-01-08T07:09:22.492Z,16.07
2018-01-08T07:11:50.730Z,14.50
2018-01-08T07:14:18.968Z,14.77
2018-01-08T07:16:48.005Z,12.80
2018-01-08T07:19:16.248Z,13.60
2018-01-08T07:21:45.267Z,16.07
2018-01-08T07:24:14.322Z,12.03
2018-01-08T07:26:42.576Z,14.07
2018-01-08T07:29:11.606Z,14.40
2018-01-08T07:31:40.681Z,12.70
2018-01-08T07:34:08.916Z,12.83
2018-01-08T07:36:37.912Z,14.37
2018-01-08T07:39:07.712Z,14.37
2018-01-08T07:41:35.944Z,12.50
2018-01-08T07:44:04.180Z,11.60
2018-01-08T07:46:33.953Z,14.27
2018-01-08T07:49:02.188Z,12.80
2018-01-08T07:51:30.436Z,12.53
2018-01-08T07:53:58.727Z,13.67
2018-01-08T07:56:28.323Z,14.03
2018-01-08T07:58:56.832Z,13.50
2018-01-08T08:01:25.869Z,10.33
2018-01-08T08:03:55.461Z,11.90
2018-01-08T08:06:24.336Z,16.53
2018-01-08T08:08:52.621Z,12.57
2018-01-08T08:11:22.360Z,12.73
2018-01-08T08:13:51.358Z,12.53
2018-01-08T08:16:22.380Z,14.23
2018-01-08T08:18:50.893Z,15.30
2018-01-08T08:21:19.126Z,12.73
2018-01-08T08:23:47.393Z,15.57
2018-01-08T08:26:15.658Z,16.67
2018-01-08T08:28:45.250Z,14.50
2018-01-08T08:31:14.186Z,13.73
2018-01-08T08:33:42.439Z,13.30
2018-01-08T08:36:10.910Z,12.77
2018-01-08T08:38:39.578Z,13.30
2018-01-08T08:41:07.837Z,12.30
2018-01-08T08:43:36.079Z,13.17
2018-01-08T08:46:04.344Z,16.10
2018-01-08T08:48:32.585Z,13.80
2018-01-08T08:51:00.848Z,14.50
2018-01-08T08:53:29.132Z,12.50
2018-01-08T08:55:59.345Z,13.10
2018-01-08T08:58:27.452Z,18.60
2018-01-08T09:00:55.736Z,12.10
2018-01-08T09:03:25.116Z,13.30
2018-01-08T09:05:53.748Z,15.90
2018-01-08T09:08:22.021Z,13.20
2018-01-08T09:10:51.764Z,13.30
2018-01-08T09:13:21.356Z,14.40
2018-01-08T09:15:50.284Z,17.03
2018-01-08T09:18:18.518Z,16.87
2018-01-08T09:20:47.516Z,13.17
2018-01-08T09:23:16.956Z,17.23
2018-01-08T09:25:45.610Z,16.30
2018-01-08T09:28:13.851Z,16.43
2018-01-08T09:30:42.136Z,12.43
2018-01-08T09:33:10.389Z,14.50
2018-01-08T09:35:38.624Z,15.70
2018-01-08T09:38:06.902Z,14.80
2018-01-08T09:40:35.126Z,13.90
2018-01-08T09:43:03.377Z,14.03
2018-01-08T09:45:32.999Z,14.20
2018-01-08T09:48:01.142Z,12.00
2018-01-08T09:50:29.396Z,16.83
2018-01-08T09:52:59.077Z,18.40
2018-01-08T09:55:28.501Z,17.00
2018-01-08T09:57:57.014Z,11.50
2018-01-08T10:00:25.277Z,16.80
2018-01-08T10:03:06.344Z,16.23
2018-01-08T10:05:52.952Z,14.20
2018-01-08T10:08:39.511Z,13.17
2018-01-08T10:11:25.712Z,16.60
2018-01-08T10:14:11.784Z,13.43
2018-01-08T10:16:57.805Z,15.70
2018-01-08T10:19:58.069Z,17.00
2018-01-08T10:22:26.494Z,13.03
2018-01-08T10:24:54.728Z,13.27
2018-01-08T10:27:22.956Z,12.83
2018-01-08T10:29:51.230Z,14.10
2018-01-08T10:32:19.482Z,15.63
2018-01-08T10:34:49.070Z,12.57
2018-01-08T10:37:18.600Z,13.97
2018-01-08T10:39:47.104Z,13.33
2018-01-08T10:42:21.129Z,11.17
2018-01-08T10:44:56.765Z,14.07
2018-01-08T10:47:31.028Z,15.10
2018-01-08T10:50:05.216Z,13.80
2018-01-08T10:52:33.485Z,12.17
2018-01-08T10:55:04.242Z,12.70
2018-01-08T10:57:32.481Z,14.77
2018-01-08T11:00:00.767Z,17.33
2018-01-08T11:02:34.581Z,15.13
2018-01-08T11:05:02.857Z,13.17
2018-01-08T11:07:31.507Z,13.27
2018-01-08T11:10:00.920Z,14.07
2018-01-08T11:12:29.228Z,13.77
2018-01-08T11:14:57.462Z,15.47
2018-01-08T11:17:25.697Z,15.53
2018-01-08T11:19:55.106Z,13.10
2018-01-08T11:22:24.848Z,12.60
2018-01-08T11:24:53.080Z,11.97
2018-01-08T11:27:21.357Z,13.30
2018-01-08T11:29:50.944Z,14.70
2018-01-08T11:32:19.073Z,11.30
2018-01-08T11:34:47.733Z,13.50
2018-01-08T11:37:15.996Z,13.90
2018-01-08T11:39:45.748Z,12.50
2018-01-08T11:42:14.032Z,10.83
2018-01-08T11:44:42.273Z,14.00
2018-01-08T11:47:10.554Z,13.80
2018-01-08T11:49:40.192Z,12.40
2018-01-08T11:52:08.700Z,14.17
2018-01-08T11:54:36.939Z,13.57
2018-01-08T11:57:05.209Z,12.40
2018-01-08T11:59:33.445Z,18.53
2018-01-08T12:02:01.693Z,14.27
2018-01-08T12:04:31.109Z,17.50
2018-01-08T12:07:00.724Z,16.87
2018-01-08T12:09:29.241Z,12.73
2018-01-08T12:11:57.509Z,11.53
2018-01-08T12:14:25.746Z,11.37
2018-01-08T12:16:53.992Z,12.27
2018-01-08T12:19:22.262Z,14.63
2018-01-08T12:21:51.637Z,13.13
2018-01-08T12:24:20.632Z,17.10
2018-01-08T12:26:50.041Z,14.67
2018-01-08T12:29:19.049Z,12.17
2018-01-08T12:31:48.417Z,12.87
2018-01-08T12:34:16.713Z,12.10
2018-01-08T12:36:44.962Z,12.80
2018-01-08T12:39:13.225Z,14.43
2018-01-08T12:41:41.533Z,12.23
2018-01-08T12:44:09.801Z,13.47
2018-01-08T12:46:38.807Z,13.37
2018-01-08T12:49:09.076Z,13.00
2018-01-08T12:51:38.544Z,13.37
2018-01-08T12:54:07.057Z,14.80
2018-01-08T12:56:35.331Z,14.20
2018-01-08T12:59:04.924Z,11.90
2018-01-08T13:01:33.440Z,14.20
2018-01-08T13:04:02.473Z,12.00
2018-01-08T13:06:30.729Z,11.80
2018-01-08T13:09:00.505Z,14.00
2018-01-08T13:11:28.783Z,16.37
2018-01-08T13:13:57.021Z,14.03
2018-01-08T13:16:26.764Z,13.50
2018-01-08T13:18:55.035Z,14.30
2018-01-08T13:21:23.269Z,13.13
2018-01-08T13:23:51.508Z,14.27
2018-01-08T13:26:21.148Z,12.13
2018-01-08T13:28:49.665Z,13.60
2018-01-08T13:31:18.678Z,13.90
2018-01-08T13:33:46.941Z,15.10
2018-01-08T13:36:15.193Z,12.10
2018-01-08T13:38:44.799Z,13.90
2018-01-08T13:41:13.358Z,13.43
2018-01-08T13:43:41.601Z,12.63
2018-01-08T13:46:09.870Z,13.87
2018-01-08T13:48:39.660Z,13.57
2018-01-08T13:51:07.888Z,12.03
2018-01-08T13:53:37.473Z,13.37
2018-01-08T13:56:06.400Z,15.93
2018-01-08T13:58:34.625Z,13.47
2018-01-08T14:01:04.208Z,13.20
2018-01-08T14:03:33.128Z,14.73
2018-01-08T14:06:01.370Z,15.87
2018-01-08T14:08:30.756Z,13.70
2018-01-08T14:10:59.022Z,12.43
2018-01-08T14:13:28.763Z,12.43
2018-01-08T14:15:57.010Z,16.33
2018-01-08T14:18:25.280Z,13.80
2018-01-08T14:20:53.518Z,13.53
2018-01-08T14:23:21.765Z,15.87
2018-01-08T14:25:50.033Z,14.20
2018-01-08T14:28:18.303Z,13.50
2018-01-08T14:30:47.686Z,13.90
2018-01-08T14:33:15.972Z,14.40
2018-01-08T14:35:45.588Z,13.67
2018-01-08T14:38:14.169Z,14.57
2018-01-08T14:40:42.840Z,13.63
2018-01-08T14:43:12.605Z,14.90
2018-01-08T14:45:42.253Z,15.47
2018-01-08T14:48:10.418Z,13.63
2018-01-08T14:50:39.446Z,16.80
2018-01-08T14:53:08.481Z,15.03
2018-01-08T14:55:36.725Z,16.70
2018-01-08T14:58:04.957Z,15.63
2018-01-08T15:00:33.236Z,13.13
2018-01-08T15:03:02.986Z,15.73
2018-01-08T15:05:31.245Z,15.67
2018-01-08T15:07:59.542Z,14.90
2018-01-08T15:10:27.781Z,16.83
2018-01-08T15:12:57.524Z,14.80
2018-01-08T15:15:25.793Z,15.77
2018-01-08T15:17:54.033Z,17.10
2018-01-08T15:20:23.493Z,15.97
2018-01-08T15:22:52.532Z,14.30
2018-01-08T15:25:20.769Z,15.67
2018-01-08T15:27:50.365Z,15.50
2018-01-08T15:30:20.028Z,16.80
2018-01-08T15:32:49.376Z,16.07
2018-01-08T15:35:18.381Z,14.80
2018-01-08T15:37:48.024Z,14.10
2018-01-08T15:40:16.568Z,17.63
2018-01-08T15:42:44.837Z,17.47
2018-01-08T15:45:13.133Z,17.50
2018-01-08T15:47:42.890Z,16.40
2018-01-08T15:50:11.542Z,17.10
2018-01-08T15:52:39.811Z,16.47
2018-01-08T15:55:08.069Z,17.30
2018-01-08T15:57:37.818Z,17.83
2018-01-08T16:00:07.448Z,17.83
2018-01-08T16:02:36.912Z,15.20
2018-01-08T16:05:10.446Z,18.33
2018-01-08T16:07:38.709Z,19.07
2018-01-08T16:10:07.742Z,15.87
2018-01-08T16:12:36.026Z,16.13
2018-01-08T16:15:04.269Z,20.50
2018-01-08T16:17:36.172Z,20.03
2018-01-08T16:20:05.810Z,15.30
2018-01-08T16:22:34.692Z,22.40
2018-01-08T16:25:02.969Z,17.10
2018-01-08T16:27:32.724Z,18.47
2018-01-08T16:30:01.713Z,17.70
2018-01-08T16:32:31.286Z,16.97
2018-01-08T16:34:59.551Z,18.13
2018-01-08T16:37:28.566Z,21.77
2018-01-08T16:39:56.890Z,15.57
2018-01-08T16:42:28.515Z,16.13
2018-01-08T16:45:00.252Z,18.80
2018-01-08T16:47:28.492Z,15.87
2018-01-08T16:49:56.730Z,20.27
2018-01-08T16:52:25.780Z,19.07
2018-01-08T16:54:54.017Z,17.03
2018-01-08T16:57:22.866Z,17.40
2018-01-08T16:59:51.144Z,18.40
2018-01-08T17:02:19.823Z,20.33
2018-01-08T17:04:48.445Z,20.77
2018-01-08T17:07:16.743Z,17.30
2018-01-08T17:09:45.022Z,17.63
2018-01-08T17:12:13.306Z,17.70
2018-01-08T17:14:41.592Z,17.77
2018-01-08T17:17:09.874Z,14.90
2018-01-08T17:19:38.135Z,19.53
2018-01-08T17:22:07.909Z,17.60
2018-01-08T17:24:36.194Z,16.50
2018-01-08T17:27:04.421Z,18.43
2018-01-08T17:29:34.050Z,18.57
2018-01-08T17:32:03.673Z,16.87
2018-01-08T17:34:31.910Z,17.37
2018-01-08T17:37:00.224Z,16.93
2018-01-08T17:39:29.212Z,16.83
2018-01-08T17:41:58.218Z,20.73
2018-01-08T17:44:26.504Z,24.13
2018-01-08T17:46:54.793Z,17.33
2018-01-08T17:49:24.512Z,16.27
2018-01-08T17:51:54.145Z,18.23
2018-01-08T17:54:22.658Z,20.80
2018-01-08T17:56:51.660Z,19.50
2018-01-08T17:59:21.071Z,18.97
2018-01-08T18:01:50.069Z,16.47
2018-01-08T18:04:18.314Z,17.90
2018-01-08T18:06:47.764Z,17.60
2018-01-08T18:09:16.014Z,19.57
2018-01-08T18:11:45.115Z,18.50
2018-01-08T18:14:13.807Z,19.13
2018-01-08T18:16:42.842Z,19.03
2018-01-08T18:19:12.452Z,21.77
2018-01-08T18:21:41.021Z,19.37
2018-01-08T18:24:10.047Z,18.57
2018-01-08T18:26:39.655Z,17.03
2018-01-08T18:29:08.967Z,18.60
2018-01-08T18:31:37.235Z,17.70
2018-01-08T18:34:06.221Z,21.63
2018-01-08T18:36:34.497Z,20.40
2018-01-08T18:39:02.784Z,22.00
2018-01-08T18:41:31.009Z,19.43
2018-01-08T18:43:59.497Z,21.03
2018-01-08T18:46:27.733Z,21.70
2018-01-08T18:48:57.420Z,19.57
2018-01-08T18:51:25.985Z,26.87
2018-01-08T18:53:55.378Z,24.40
2018-01-08T18:56:24.463Z,21.93
2018-01-08T18:58:54.105Z,20.20
2018-01-08T19:01:22.704Z,21.03
2018-01-08T19:03:51.696Z,23.20
2018-01-08T19:06:21.537Z,23.23
2018-01-08T19:08:51.070Z,22.97
2018-01-08T19:11:20.782Z,19.27
2018-01-08T19:13:49.072Z,25.40
2018-01-08T19:16:17.359Z,25.00
2018-01-08T19:18:46.451Z,22.60
2018-01-08T19:21:14.774Z,19.87
2018-01-08T19:23:43.127Z,22.00
2018-01-08T19:26:14.473Z,23.23
2018-01-08T19:28:43.422Z,24.87
2018-01-08T19:31:11.759Z,24.43
2018-01-08T19:33:40.092Z,26.93
2018-01-08T19:36:08.411Z,23.60
2018-01-08T19:38:37.573Z,22.23
2018-01-08T19:41:06.751Z,26.33
2018-01-08T19:43:36.340Z,27.30
2018-01-08T19:46:05.856Z,23.20
2018-01-08T19:48:35.419Z,26.47
2018-01-08T19:51:03.894Z,28.00
2018-01-08T19:53:32.228Z,26.30
2018-01-08T19:56:02.040Z,26.87
2018-01-08T19:58:31.274Z,25.73
2018-01-08T20:00:59.593Z,28.47
2018-01-08T20:03:28.682Z,32.67
2018-01-08T20:05:57.716Z,26.60
2018-01-08T20:08:27.380Z,28.60
2018-01-08T20:10:55.964Z,25.20
2018-01-08T20:13:25.591Z,26.17
2018-01-08T20:15:53.792Z,26.43
2018-01-08T20:18:22.069Z,31.83
2018-01-08T20:20:50.342Z,29.40
2018-01-08T20:23:19.416Z,26.60
2018-01-08T20:25:47.692Z,25.77
2018-01-08T20:28:15.991Z,31.10
2018-01-08T20:30:44.304Z,27.57
2018-01-08T20:33:13.745Z,29.03
2018-01-08T20:35:43.399Z,28.60
2018-01-08T20:38:12.016Z,29.60
2018-01-08T20:40:41.598Z,28.30
2018-01-08T20:43:10.268Z,29.57
2018-01-08T20:45:38.567Z,23.80
2018-01-08T20:48:07.591Z,29.40
2018-01-08T20:50:37.225Z,33.13
2018-01-08T20:53:05.415Z,28.23
2018-01-08T20:55:34.085Z,28.80
2018-01-08T20:58:02.747Z,29.57
2018-01-08T21:00:32.192Z,30.37
2018-01-08T21:03:01.255Z,28.73
2018-01-08T21:05:30.313Z,30.00
2018-01-08T21:07:59.383Z,29.80
2018-01-08T21:10:29.024Z,29.83
2018-01-08T21:12:57.565Z,30.10
2018-01-08T21:15:25.913Z,30.67
2018-01-08T21:17:54.185Z,27.33
2018-01-08T21:20:22.400Z,28.17
2018-01-08T21:22:50.677Z,28.43
2018-01-08T21:25:18.955Z,32.80
2018-01-08T21:27:47.233Z,27.50
2018-01-08T21:30:15.516Z,31.10
2018-01-08T21:32:45.176Z,34.73
2018-01-08T21:35:13.352Z,32.00
2018-01-08T21:37:41.624Z,30.50
2018-01-08T21:40:09.930Z,33.10
2018-01-08T21:42:38.973Z,32.33
2018-01-08T21:45:08.177Z,28.17
2018-01-08T21:47:37.772Z,30.00
2018-01-08T21:50:07.445Z,30.50
2018-01-08T21:52:37.107Z,29.67
2018-01-08T21:55:05.256Z,27.10
2018-01-08T21:57:33.538Z,29.20
2018-01-08T22:00:03.200Z,29.80
2018-01-08T22:02:32.823Z,29.60
2018-01-08T22:05:02.192Z,30.47
2018-01-08T22:07:30.546Z,31.00
2018-01-08T22:09:58.820Z,29.10
2018-01-08T22:12:28.586Z,29.53
2018-01-08T22:14:57.664Z,27.87
2018-01-08T22:17:27.302Z,30.40
2018-01-08T22:19:55.447Z,26.87
2018-01-08T22:22:23.705Z,29.30
2018-01-08T22:24:52.764Z,37.83
2018-01-08T22:27:21.036Z,31.40
2018-01-08T22:29:50.124Z,29.80
2018-01-08T22:32:19.739Z,26.53
2018-01-08T22:34:47.897Z,30.50
2018-01-08T22:37:17.560Z,27.03
2018-01-08T22:39:45.729Z,28.83
2018-01-08T22:42:15.500Z,27.27
2018-01-08T22:44:43.827Z,26.03
2018-01-08T22:47:12.124Z,28.40
2018-01-08T22:49:40.408Z,27.20
2018-01-08T22:52:08.708Z,30.90
2018-01-08T22:54:36.980Z,32.10
2018-01-08T22:57:06.769Z,31.90
2018-01-08T22:59:35.078Z,26.87
2018-01-08T23:02:03.740Z,27.20
2018-01-08T23:04:33.515Z,27.47
2018-01-08T23:07:01.777Z,26.20
2018-01-08T23:09:30.836Z,31.43
2018-01-08T23:11:59.110Z,25.23
2018-01-08T23:14:27.424Z,26.30
2018-01-08T23:16:55.701Z,27.03
2018-01-08T23:19:23.933Z,26.00
2018-01-08T23:21:52.251Z,36.30
2018-01-08T23:24:20.549Z,25.00
2018-01-08T23:26:49.588Z,28.30
2018-01-08T23:29:18.667Z,31.03
2018-01-08T23:31:46.926Z,31.00
2018-01-08T23:34:16.328Z,29.37
2018-01-08T23:36:44.601Z,27.83
2018-01-08T23:39:14.184Z,27.77
2018-01-08T23:41:42.692Z,30.97
2018-01-08T23:44:10.981Z,36.80
2018-01-08T23:46:40.353Z,28.33
2018-01-08T23:49:09.720Z,28.70
2018-01-08T23:51:38.753Z,32.17
2018-01-08T23:54:08.352Z,29.90
2018-01-08T23:56:36.899Z,34.80
2018-01-08T23:59:05.173Z,26.40
